Time;durP1;ratioP1;P1;durP2;ratioP2;P2;SDS_P1;SDS_P2;PMS_P1;PMS_P2;Temp;Humidity;BMP_temperature;BMP_pressure;BME280_temperature;BME280_humidity;BME280_pressure;Samples;Min_cycle;Max_cycle;Signal;HPM_P1;HPM_P2
2023/03/10 00:01:20;;;;;;;0.32;0.30;;;;;;;;;;5087241;28;20078;-82
2023/03/10 00:03:45;;;;;;;1.58;1.00;;;;;;;;;;5087540;28;20415;-81
2023/03/10 00:06:14;;;;;;;1.00;0.80;;;;;;;;;;5083741;28;20078;-81
2023/03/10 00:08:40;;;;;;;1.90;1.05;;;;;;;;;;5082180;28;20024;-82
2023/03/10 00:11:06;;;;;;;3.40;1.50;;;;;;;;;;5085982;28;20056;-81
2023/03/10 00:13:31;;;;;;;1.58;0.95;;;;;;;;;;5083814;28;20487;-81
2023/03/10 00:15:57;;;;;;;1.92;1.00;;;;;;;;;;5087033;28;20036;-84
2023/03/10 00:18:22;;;;;;;2.05;1.30;;;;;;;;;;5084873;28;20111;-83
2023/03/10 00:20:52;;;;;;;7.68;1.40;;;;;;;;;;5083966;28;20025;-81
2023/03/10 00:23:18;;;;;;;;;;;;;;;;;;5088846;28;20662;-81
2023/03/10 00:25:43;;;;;;;2.08;1.25;;;;;;;;;;5086669;28;19912;-83
2023/03/10 00:28:09;;;;;;;2.40;1.13;;;;;;;;;;5083632;28;20078;-81
2023/03/10 00:30:34;;;;;;;1.55;0.88;;;;;;;;;;5082783;28;20376;-82
2023/03/10 00:33:02;;;;;;;1.08;0.90;;;;;;;;;;5085067;28;20097;-82
2023/03/10 00:35:28;;;;;;;2.85;1.35;;;;;;;;;;5107521;28;20479;-82
2023/03/10 00:37:54;;;;;;;0.95;0.80;;;;;;;;;;5087207;28;20055;-82
2023/03/10 00:40:20;;;;;;;2.28;0.90;;;;;;;;;;5091203;28;20028;-83
2023/03/10 00:42:45;;;;;;;1.23;0.70;;;;;;;;;;5086280;28;20031;-82
2023/03/10 00:45:11;;;;;;;1.75;0.60;;;;;;;;;;5078760;28;20028;-82
2023/03/10 00:47:36;;;;;;;4.70;1.17;;;;;;;;;;5082292;28;20015;-83
2023/03/10 00:50:02;;;;;;;0.82;0.68;;;;;;;;;;5081321;28;20472;-82
2023/03/10 00:52:32;;;;;;;0.75;0.73;;;;;;;;;;5091128;28;20016;-83
2023/03/10 00:54:58;;;;;;;4.18;1.00;;;;;;;;;;5090483;28;20061;-82
2023/03/10 00:57:23;;;;;;;1.40;0.98;;;;;;;;;;5086057;28;20028;-83
2023/03/10 00:59:51;;;;;;;1.70;0.60;;;;;;;;;;5082972;28;20060;-82
2023/03/10 01:02:18;;;;;;;1.35;1.05;;;;;;;;;;5085928;28;20023;-85
2023/03/10 01:04:44;;;;;;;1.08;0.90;;;;;;;;;;5085948;28;20028;-84
2023/03/10 01:07:10;;;;;;;1.88;1.33;;;;;;;;;;5083901;28;20032;-84
2023/03/10 01:09:35;;;;;;;0.50;0.50;;;;;;;;;;5089385;28;20024;-82
2023/03/10 01:12:00;;;;;;;0.43;0.43;;;;;;;;;;5091589;28;20017;-82
2023/03/10 01:14:26;;;;;;;1.15;0.90;;;;;;;;;;5078739;28;20373;-82
2023/03/10 01:16:51;;;;;;;0.90;0.60;;;;;;;;;;5086199;28;20051;-81
2023/03/10 01:19:17;;;;;;;3.03;1.40;;;;;;;;;;5086396;28;20032;-81
2023/03/10 01:21:43;;;;;;;1.35;0.60;;;;;;;;;;5078498;28;20036;-82
2023/03/10 01:24:12;;;;;;;0.43;0.43;;;;;;;;;;5082572;28;20028;-81
2023/03/10 01:26:38;;;;;;;0.50;0.50;;;;;;;;;;5082363;28;20174;-81
2023/03/10 01:29:03;;;;;;;2.35;0.80;;;;;;;;;;5084617;28;20500;-81
2023/03/10 01:31:28;;;;;;;0.70;0.70;;;;;;;;;;5079360;28;20102;-81
2023/03/10 01:33:54;;;;;;;0.85;0.50;;;;;;;;;;5091274;28;20048;-79
2023/03/10 01:36:22;;;;;;;1.48;0.57;;;;;;;;;;5090113;28;20031;-80
2023/03/10 01:38:48;;;;;;;2.67;0.80;;;;;;;;;;5088022;28;20040;-80
2023/03/10 01:41:15;;;;;;;0.80;0.68;;;;;;;;;;5086014;28;20035;-82
2023/03/10 01:43:42;;;;;;;0.65;0.50;;;;;;;;;;5091381;28;20110;-82
2023/03/10 01:46:43;;;;;;;1.05;0.63;;;;;;;;;;5083293;28;20137;-81
2023/03/10 01:49:26;;;;;;;1.17;0.93;;;;;;;;;;5096300;28;20035;-81
2023/03/10 01:52:20;;;;;;;0.65;0.43;;;;;;;;;;5105132;28;20077;-81
2023/03/10 01:54:53;;;;;;;1.10;0.80;;;;;;;;;;5105538;28;20032;-80
2023/03/10 01:57:35;;;;;;;2.85;0.93;;;;;;;;;;5087828;28;20028;-81
2023/03/10 02:00:03;;;;;;;0.50;0.40;;;;;;;;;;5083005;28;20034;-81
2023/03/10 02:02:32;;;;;;;1.92;0.93;;;;;;;;;;5087660;28;20028;-81
2023/03/10 02:04:58;;;;;;;1.77;1.27;;;;;;;;;;5072554;28;20101;-81
2023/03/10 02:07:29;;;;;;;0.63;0.60;;;;;;;;;;5083906;28;20028;-81
2023/03/10 02:09:55;;;;;;;2.03;1.02;;;;;;;;;;5082945;28;20031;-80
2023/03/10 02:12:21;;;;;;;0.40;0.40;;;;;;;;;;5083778;28;20033;-80
2023/03/10 02:14:48;;;;;;;0.75;0.70;;;;;;;;;;5092053;28;20072;-80
2023/03/10 02:17:17;;;;;;;0.50;0.50;;;;;;;;;;5087598;28;20028;-80
2023/03/10 02:20:12;;;;;;;0.73;0.63;;;;;;;;;;5085434;28;20032;-80
2023/03/10 02:22:38;;;;;;;0.82;0.40;;;;;;;;;;5084290;28;20036;-80
2023/03/10 02:25:29;;;;;;;0.50;0.50;;;;;;;;;;5083070;28;20028;-80
2023/03/10 02:27:58;;;;;;;0.65;0.65;;;;;;;;;;5087273;28;20036;-83
2023/03/10 02:30:28;;;;;;;2.08;1.08;;;;;;;;;;5081329;28;20067;-82
2023/03/10 02:32:57;;;;;;;0.95;0.88;;;;;;;;;;5084067;28;20158;-82
2023/03/10 02:35:23;;;;;;;1.43;1.33;;;;;;;;;;5087850;28;20032;-82
2023/03/10 02:37:52;;;;;;;1.88;1.20;;;;;;;;;;5085165;28;20033;-83
2023/03/10 02:40:48;;;;;;;1.25;0.60;;;;;;;;;;5086672;28;20028;-81
2023/03/10 02:43:32;;;;;;;1.35;0.73;;;;;;;;;;5091544;28;20051;-80
2023/03/10 02:46:00;;;;;;;1.00;0.55;;;;;;;;;;5088988;28;20480;-80
2023/03/10 02:48:29;;;;;;;1.00;0.90;;;;;;;;;;5090242;28;20111;-80
2023/03/10 02:50:56;;;;;;;0.77;0.63;;;;;;;;;;5091406;28;20036;-81
2023/03/10 02:53:25;;;;;;;2.13;1.10;;;;;;;;;;5088109;28;20056;-80
2023/03/10 02:55:51;;;;;;;0.82;0.45;;;;;;;;;;5084337;28;20035;-80
2023/03/10 02:58:18;;;;;;;2.33;1.05;;;;;;;;;;5092861;28;20053;-81
2023/03/10 03:00:45;;;;;;;0.68;0.50;;;;;;;;;;5089009;28;20028;-81
2023/03/10 03:03:11;;;;;;;0.70;0.70;;;;;;;;;;5085447;28;20025;-82
2023/03/10 03:05:37;;;;;;;0.98;0.88;;;;;;;;;;5087712;28;20028;-81
2023/03/10 03:08:04;;;;;;;0.63;0.50;;;;;;;;;;5089317;28;20138;-81
2023/03/10 03:10:30;;;;;;;2.00;0.95;;;;;;;;;;5090601;28;20553;-81
2023/03/10 03:12:55;;;;;;;0.82;0.52;;;;;;;;;;5086452;28;20047;-81
2023/03/10 03:15:22;;;;;;;0.63;0.45;;;;;;;;;;5089786;28;20028;-81
2023/03/10 03:17:47;;;;;;;1.23;0.70;;;;;;;;;;5086951;28;20124;-82
2023/03/10 03:20:13;;;;;;;1.27;0.77;;;;;;;;;;5082260;28;20055;-80
2023/03/10 03:22:41;;;;;;;1.98;0.88;;;;;;;;;;5089942;28;20046;-81
2023/03/10 03:25:07;;;;;;;0.47;0.47;;;;;;;;;;5090062;28;20028;-81
2023/03/10 03:27:32;;;;;;;0.68;0.68;;;;;;;;;;5082505;28;20529;-81
2023/03/10 03:29:58;;;;;;;1.25;0.68;;;;;;;;;;5085178;28;20032;-81
2023/03/10 03:32:24;;;;;;;0.75;0.55;;;;;;;;;;5084967;28;20044;-81
2023/03/10 03:34:49;;;;;;;1.00;0.73;;;;;;;;;;5081825;28;20082;-83
2023/03/10 03:37:14;;;;;;;0.57;0.38;;;;;;;;;;5083388;28;20081;-83
2023/03/10 03:39:40;;;;;;;0.73;0.52;;;;;;;;;;5081193;28;20029;-84
2023/03/10 03:42:06;;;;;;;1.13;0.95;;;;;;;;;;5085926;28;20030;-82
2023/03/10 03:44:37;;;;;;;0.52;0.30;;;;;;;;;;5086785;28;21591;-84
2023/03/10 03:47:04;;;;;;;0.40;0.30;;;;;;;;;;5085809;28;20028;-82
2023/03/10 03:49:29;;;;;;;0.90;0.68;;;;;;;;;;5085451;28;20025;-82
2023/03/10 03:51:55;;;;;;;1.02;0.65;;;;;;;;;;5081479;28;20031;-82
2023/03/10 03:54:20;;;;;;;1.02;0.43;;;;;;;;;;5081695;28;20025;-82
2023/03/10 03:56:45;;;;;;;0.80;0.52;;;;;;;;;;5083912;28;20077;-82
2023/03/10 03:59:11;;;;;;;0.70;0.50;;;;;;;;;;5087415;28;20024;-81
2023/03/10 04:01:36;;;;;;;0.85;0.70;;;;;;;;;;5083911;28;20462;-82
2023/03/10 04:04:02;;;;;;;1.00;0.90;;;;;;;;;;5088136;28;20023;-82
2023/03/10 04:06:27;;;;;;;0.60;0.60;;;;;;;;;;5091065;28;20046;-81
2023/03/10 04:08:52;;;;;;;0.80;0.80;;;;;;;;;;5081872;28;20034;-82
2023/03/10 04:11:18;;;;;;;0.60;0.60;;;;;;;;;;5085786;28;20419;-82
2023/03/10 04:13:43;;;;;;;0.40;0.30;;;;;;;;;;5082585;28;20078;-82
2023/03/10 04:16:08;;;;;;;0.52;0.45;;;;;;;;;;5083037;28;20040;-81
2023/03/10 04:18:34;;;;;;;0.75;0.68;;;;;;;;;;5084592;28;20055;-83
2023/03/10 04:21:00;;;;;;;0.30;0.30;;;;;;;;;;5085797;28;20029;-85
2023/03/10 04:23:25;;;;;;;1.10;0.90;;;;;;;;;;5087120;28;20020;-84
2023/03/10 04:25:51;;;;;;;0.70;0.65;;;;;;;;;;5083685;28;20028;-84
2023/03/10 04:28:16;;;;;;;1.65;0.88;;;;;;;;;;5083270;28;20161;-81
2023/03/10 04:30:45;;;;;;;0.65;0.63;;;;;;;;;;5083580;28;20044;-81
2023/03/10 04:33:11;;;;;;;1.98;1.15;;;;;;;;;;5050136;28;1144816;-81
2023/03/10 04:35:46;;;;;;;0.60;0.60;;;;;;;;;;5089812;28;20438;-80
2023/03/10 04:38:12;;;;;;;0.95;0.77;;;;;;;;;;5083451;28;20499;-82
2023/03/10 04:40:38;;;;;;;0.65;0.60;;;;;;;;;;5083690;28;20028;-82
2023/03/10 04:43:03;;;;;;;1.75;0.88;;;;;;;;;;5079722;28;20758;-82
2023/03/10 04:45:29;;;;;;;1.13;0.63;;;;;;;;;;5084324;28;20023;-82
2023/03/10 04:47:54;;;;;;;2.03;0.98;;;;;;;;;;5081091;28;20025;-82
2023/03/10 04:50:20;;;;;;;0.57;0.50;;;;;;;;;;5081227;28;20035;-82
2023/03/10 04:52:45;;;;;;;2.55;1.85;;;;;;;;;;5083790;28;20028;-82
2023/03/10 04:55:14;;;;;;;3.58;0.32;;;;;;;;;;5080777;28;20028;-81
2023/03/10 04:57:40;;;;;;;0.53;0.53;;;;;;;;;;5081768;28;20034;-81
2023/03/10 05:00:06;;;;;;;1.20;1.05;;;;;;;;;;5088755;28;20024;-81
2023/03/10 05:02:33;;;;;;;0.90;0.73;;;;;;;;;;5085730;28;20032;-80
2023/03/10 05:05:00;;;;;;;0.65;0.50;;;;;;;;;;5079217;28;20133;-80
2023/03/10 05:07:25;;;;;;;0.98;0.68;;;;;;;;;;5087283;28;20020;-80
2023/03/10 05:09:51;;;;;;;2.38;1.17;;;;;;;;;;5089152;28;20030;-81
2023/03/10 05:12:16;;;;;;;1.35;1.00;;;;;;;;;;5083075;28;20032;-83
2023/03/10 05:14:42;;;;;;;0.75;0.60;;;;;;;;;;5083369;28;20024;-81
2023/03/10 05:17:08;;;;;;;0.35;0.35;;;;;;;;;;5085917;28;20036;-80
2023/03/10 05:19:34;;;;;;;1.63;0.63;;;;;;;;;;5078776;28;20061;-78
2023/03/10 05:22:00;;;;;;;0.75;0.63;;;;;;;;;;5082754;28;20047;-81
2023/03/10 05:24:25;;;;;;;3.65;0.73;;;;;;;;;;5080673;28;20020;-79
2023/03/10 05:26:50;;;;;;;0.85;0.73;;;;;;;;;;5084672;28;20028;-85
2023/03/10 05:29:16;;;;;;;1.20;0.70;;;;;;;;;;5083083;28;20488;-80
2023/03/10 05:31:43;;;;;;;1.05;0.68;;;;;;;;;;5079629;28;20038;-81
2023/03/10 05:34:08;;;;;;;0.95;0.60;;;;;;;;;;5085036;28;20036;-80
2023/03/10 05:36:34;;;;;;;1.40;1.25;;;;;;;;;;5083007;28;20029;-80
2023/03/10 05:38:59;;;;;;;0.75;0.75;;;;;;;;;;5083124;28;20031;-80
2023/03/10 05:41:25;;;;;;;0.63;0.47;;;;;;;;;;5078941;28;20380;-80
2023/03/10 05:43:50;;;;;;;2.42;0.57;;;;;;;;;;5082028;28;20387;-80
2023/03/10 05:46:15;;;;;;;1.27;0.70;;;;;;;;;;5082587;28;20073;-79
2023/03/10 05:48:41;;;;;;;2.38;0.80;;;;;;;;;;5084727;28;20035;-81
2023/03/10 05:51:09;;;;;;;3.70;1.48;;;;;;;;;;5083000;28;20024;-81
2023/03/10 05:53:36;;;;;;;1.45;0.75;;;;;;;;;;5079736;28;20032;-80
2023/03/10 05:56:16;;;;;;;0.65;0.50;;;;;;;;;;5089664;28;20016;-81
2023/03/10 05:58:43;;;;;;;0.65;0.55;;;;;;;;;;5084151;28;20471;-81
2023/03/10 06:01:09;;;;;;;1.40;0.80;;;;;;;;;;5081833;28;20020;-81
2023/03/10 06:03:35;;;;;;;0.57;0.55;;;;;;;;;;5080237;28;20460;-80
2023/03/10 06:06:00;;;;;;;2.05;1.23;;;;;;;;;;5085700;28;20086;-78
2023/03/10 06:08:29;;;;;;;4.60;1.80;;;;;;;;;;5080542;28;20028;-79
2023/03/10 06:10:55;;;;;;;2.28;1.00;;;;;;;;;;5087962;28;20119;-79
2023/03/10 06:13:21;;;;;;;1.80;1.13;;;;;;;;;;5079126;28;20028;-79
2023/03/10 06:15:51;;;;;;;1.00;0.70;;;;;;;;;;5102378;28;20028;-79
2023/03/10 06:18:17;;;;;;;1.60;0.73;;;;;;;;;;5079100;28;20048;-79
2023/03/10 06:20:43;;;;;;;4.95;1.35;;;;;;;;;;5081904;28;20404;-79
2023/03/10 06:23:08;;;;;;;1.02;0.95;;;;;;;;;;5082134;28;20027;-80
2023/03/10 06:25:34;;;;;;;1.38;1.23;;;;;;;;;;5081803;28;20026;-79
2023/03/10 06:28:00;;;;;;;1.75;0.85;;;;;;;;;;5100264;28;20031;-79
2023/03/10 06:30:25;;;;;;;0.90;0.90;;;;;;;;;;5084231;28;20028;-80
2023/03/10 06:32:51;;;;;;;1.48;1.08;;;;;;;;;;5082536;28;20127;-79
2023/03/10 06:35:16;;;;;;;1.27;0.93;;;;;;;;;;5085051;28;20028;-78
2023/03/10 06:37:42;;;;;;;1.77;0.65;;;;;;;;;;5087179;28;20031;-80
2023/03/10 06:40:11;;;;;;;3.58;1.70;;;;;;;;;;5087252;28;20028;-79
2023/03/10 06:42:38;;;;;;;2.97;1.33;;;;;;;;;;5083037;28;20111;-80
2023/03/10 06:45:05;;;;;;;3.45;1.88;;;;;;;;;;5081986;28;20445;-80
2023/03/10 06:47:30;;;;;;;1.90;1.33;;;;;;;;;;5079480;28;20390;-80
2023/03/10 06:49:56;;;;;;;4.18;1.98;;;;;;;;;;5078771;28;20033;-80
2023/03/10 06:52:21;;;;;;;4.85;2.15;;;;;;;;;;5079009;28;20044;-79
2023/03/10 06:54:47;;;;;;;2.65;1.52;;;;;;;;;;5081758;28;20043;-81
2023/03/10 06:57:12;;;;;;;3.60;1.95;;;;;;;;;;5079261;28;20541;-80
2023/03/10 06:59:37;;;;;;;2.38;1.60;;;;;;;;;;5080460;28;20028;-80
2023/03/10 07:02:03;;;;;;;3.90;1.85;;;;;;;;;;5080867;28;20052;-82
2023/03/10 07:04:28;;;;;;;4.32;2.42;;;;;;;;;;5102285;28;20028;-81
2023/03/10 07:06:54;;;;;;;7.60;3.60;;;;;;;;;;5084991;28;20472;-82
2023/03/10 07:09:19;;;;;;;7.00;3.15;;;;;;;;;;5084297;28;20037;-82
2023/03/10 07:11:45;;;;;;;8.10;4.18;;;;;;;;;;5087513;28;20019;-79
2023/03/10 07:14:10;;;;;;;10.82;4.50;;;;;;;;;;5078587;28;20036;-81
2023/03/10 07:16:38;;;;;;;14.75;6.05;;;;;;;;;;5080511;28;20020;-81
2023/03/10 07:19:03;;;;;;;7.15;4.07;;;;;;;;;;5085747;28;20353;-80
2023/03/10 07:21:29;;;;;;;5.82;3.90;;;;;;;;;;5078214;28;20108;-82
2023/03/10 07:23:54;;;;;;;10.43;4.82;;;;;;;;;;5088623;28;20036;-80
2023/03/10 07:26:20;;;;;;;9.70;4.10;;;;;;;;;;5088645;28;20028;-82
2023/03/10 07:28:46;;;;;;;8.18;4.72;;;;;;;;;;5088637;28;20081;-81
2023/03/10 07:31:12;;;;;;;12.02;4.95;;;;;;;;;;5083778;28;20028;-81
2023/03/10 07:33:38;;;;;;;13.48;5.32;;;;;;;;;;5080750;28;20032;-82
2023/03/10 07:36:09;;;;;;;23.05;10.43;;;;;;;;;;5084389;28;20042;-81
2023/03/10 07:38:35;;;;;;;4.82;3.00;;;;;;;;;;5086052;28;20463;-81
2023/03/10 07:41:08;;;;;;;4.07;2.15;;;;;;;;;;5084178;28;20124;-81
2023/03/10 07:43:34;;;;;;;7.93;3.58;;;;;;;;;;5078273;28;20043;-82
2023/03/10 07:46:04;;;;;;;5.50;3.90;;;;;;;;;;5082816;28;20107;-78
2023/03/10 07:48:29;;;;;;;;;;;;;;;;;;5084948;28;20024;-79
2023/03/10 07:50:58;;;;;;;5.25;3.35;;;;;;;;;;5084680;28;19964;-83
2023/03/10 07:53:24;;;;;;;7.43;3.22;;;;;;;;;;5085520;28;20051;-81
2023/03/10 07:55:50;;;;;;;7.55;3.25;;;;;;;;;;5083743;28;20530;-81
2023/03/10 07:58:15;;;;;;;9.38;3.72;;;;;;;;;;5082062;28;20032;-81
2023/03/10 08:00:41;;;;;;;11.95;2.80;;;;;;;;;;5084144;28;20020;-81
2023/03/10 08:03:06;;;;;;;5.28;3.15;;;;;;;;;;5087023;28;20017;-80
2023/03/10 08:05:32;;;;;;;4.28;2.45;;;;;;;;;;5089827;28;20031;-81
2023/03/10 08:07:57;;;;;;;4.78;2.72;;;;;;;;;;5082653;28;20051;-78
2023/03/10 08:10:23;;;;;;;9.77;2.88;;;;;;;;;;5082389;28;20055;-81
2023/03/10 08:12:49;;;;;;;7.40;2.92;;;;;;;;;;5088118;28;20024;-81
2023/03/10 08:15:14;;;;;;;7.18;2.50;;;;;;;;;;5084961;28;20032;-82
2023/03/10 08:17:40;;;;;;;3.53;2.20;;;;;;;;;;5080068;28;20036;-82
2023/03/10 08:20:05;;;;;;;3.15;2.05;;;;;;;;;;5088122;28;20031;-81
2023/03/10 08:22:32;;;;;;;6.47;1.95;;;;;;;;;;5085222;28;20431;-82
2023/03/10 08:24:58;;;;;;;2.85;1.75;;;;;;;;;;5085831;28;20047;-80
2023/03/10 08:27:24;;;;;;;3.88;2.05;;;;;;;;;;5083109;28;20462;-81
2023/03/10 08:29:50;;;;;;;2.78;2.05;;;;;;;;;;5084405;28;20024;-80
2023/03/10 08:32:16;;;;;;;3.85;1.73;;;;;;;;;;5088671;28;20396;-80
2023/03/10 08:34:42;;;;;;;4.43;1.73;;;;;;;;;;5083911;28;20028;-81
2023/03/10 08:37:08;;;;;;;4.15;2.20;;;;;;;;;;5081805;28;20085;-80
2023/03/10 08:39:33;;;;;;;3.70;1.88;;;;;;;;;;5086199;28;20028;-81
2023/03/10 08:41:59;;;;;;;4.18;2.33;;;;;;;;;;5085484;28;20043;-81
2023/03/10 08:44:24;;;;;;;5.68;1.65;;;;;;;;;;5085359;28;20020;-80
2023/03/10 08:46:50;;;;;;;3.65;1.50;;;;;;;;;;5085525;28;20045;-81
2023/03/10 08:49:18;;;;;;;2.97;1.65;;;;;;;;;;5083222;28;20055;-81
2023/03/10 08:51:43;;;;;;;1.67;1.33;;;;;;;;;;5088451;28;20024;-80
2023/03/10 08:54:14;;;;;;;4.32;1.20;;;;;;;;;;5081280;28;20029;-81
2023/03/10 08:56:40;;;;;;;2.63;1.55;;;;;;;;;;5085318;28;20149;-80
2023/03/10 08:59:05;;;;;;;3.70;1.83;;;;;;;;;;5083324;28;20118;-81
2023/03/10 09:01:34;;;;;;;2.58;1.27;;;;;;;;;;5082548;28;20028;-81
2023/03/10 09:04:01;;;;;;;2.05;1.27;;;;;;;;;;5086056;28;20506;-80
2023/03/10 09:06:27;;;;;;;2.63;1.90;;;;;;;;;;5084016;28;20035;-80
2023/03/10 09:08:53;;;;;;;3.78;1.65;;;;;;;;;;5088388;28;20034;-80
2023/03/10 09:11:22;;;;;;;5.47;1.75;;;;;;;;;;5087078;28;20039;-80
2023/03/10 09:13:51;;;;;;;5.43;1.42;;;;;;;;;;5083687;28;20036;-80
2023/03/10 09:16:17;;;;;;;3.57;1.10;;;;;;;;;;5088995;28;20127;-81
2023/03/10 09:18:43;;;;;;;7.85;1.60;;;;;;;;;;5086727;28;20181;-81
2023/03/10 09:21:12;;;;;;;2.38;1.40;;;;;;;;;;5082201;28;20466;-83
2023/03/10 09:23:39;;;;;;;1.48;1.02;;;;;;;;;;5087775;28;20047;-83
2023/03/10 09:26:07;;;;;;;4.25;2.00;;;;;;;;;;5087355;28;20082;-81
2023/03/10 09:28:33;;;;;;;7.93;2.38;;;;;;;;;;5086448;28;20058;-81
2023/03/10 09:30:58;;;;;;;3.63;1.75;;;;;;;;;;5082714;28;20050;-81
2023/03/10 09:33:24;;;;;;;2.72;1.48;;;;;;;;;;5079586;28;20499;-80
2023/03/10 09:35:50;;;;;;;2.60;1.80;;;;;;;;;;5102481;28;20036;-81
2023/03/10 09:38:16;;;;;;;3.78;1.67;;;;;;;;;;5079636;28;20030;-80
2023/03/10 09:40:47;;;;;;;1.02;0.98;;;;;;;;;;5084439;28;20032;-80
2023/03/10 09:43:18;;;;;;;1.23;0.98;;;;;;;;;;5080655;28;20035;-81
2023/03/10 09:46:04;;;;;;;6.70;3.25;;;;;;;;;;5085978;28;20387;-80
2023/03/10 09:48:49;;;;;;;2.53;1.35;;;;;;;;;;5083790;28;20027;-80
2023/03/10 09:51:19;;;;;;;3.17;1.60;;;;;;;;;;5084055;28;20029;-80
2023/03/10 09:54:08;;;;;;;5.70;1.98;;;;;;;;;;5085024;28;20377;-81
2023/03/10 09:56:35;;;;;;;4.00;2.25;;;;;;;;;;5089805;28;20024;-80
2023/03/10 09:59:15;;;;;;;5.22;2.10;;;;;;;;;;5081574;28;20057;-80
2023/03/10 10:01:45;;;;;;;5.15;2.30;;;;;;;;;;5104324;28;20027;-80
2023/03/10 10:04:19;;;;;;;3.38;1.67;;;;;;;;;;5082395;28;20028;-81
2023/03/10 10:06:47;;;;;;;2.85;2.03;;;;;;;;;;5078999;28;20476;-80
2023/03/10 10:09:41;;;;;;;4.13;2.03;;;;;;;;;;5082215;28;20035;-81
2023/03/10 10:12:18;;;;;;;3.55;1.92;;;;;;;;;;5076617;28;20023;-80
2023/03/10 10:14:44;;;;;;;4.35;2.28;;;;;;;;;;5085085;28;20024;-79
2023/03/10 10:17:28;;;;;;;3.67;1.88;;;;;;;;;;5080726;28;20019;-80
2023/03/10 10:19:56;;;;;;;2.13;1.67;;;;;;;;;;5074941;28;20472;-80
2023/03/10 10:22:31;;;;;;;4.20;2.05;;;;;;;;;;5086104;28;20107;-80
2023/03/10 10:25:18;;;;;;;5.85;1.85;;;;;;;;;;5083358;28;20036;-80
2023/03/10 10:27:44;;;;;;;3.03;1.58;;;;;;;;;;5088228;28;20039;-80
2023/03/10 10:30:46;;;;;;;3.20;1.60;;;;;;;;;;5086188;28;20024;-80
2023/03/10 10:33:13;;;;;;;1.75;1.15;;;;;;;;;;5082259;28;20507;-81
2023/03/10 10:35:42;;;;;;;5.65;1.90;;;;;;;;;;5076158;28;20035;-80
2023/03/10 10:38:12;;;;;;;4.63;1.83;;;;;;;;;;5082242;28;20016;-82
2023/03/10 10:41:06;;;;;;;3.47;2.03;;;;;;;;;;5105618;28;20387;-81
2023/03/10 10:43:40;;;;;;;8.57;2.45;;;;;;;;;;5078442;28;20069;-81
2023/03/10 10:46:07;;;;;;;2.33;1.65;;;;;;;;;;5082720;28;20036;-81
2023/03/10 10:48:46;;;;;;;4.45;1.98;;;;;;;;;;5083459;28;20119;-80
2023/03/10 10:51:27;;;;;;;6.85;3.10;;;;;;;;;;5075584;28;20399;-81
2023/03/10 10:53:53;;;;;;;2.78;1.75;;;;;;;;;;5103910;28;20043;-81
2023/03/10 10:56:20;;;;;;;4.15;2.33;;;;;;;;;;5103481;28;20040;-81
2023/03/10 10:59:01;;;;;;;5.50;2.92;;;;;;;;;;5081722;28;20090;-81
2023/03/10 11:01:26;;;;;;;6.53;2.38;;;;;;;;;;5081228;28;20387;-81
2023/03/10 11:04:05;;;;;;;4.60;2.92;;;;;;;;;;5081590;28;20036;-80
2023/03/10 11:06:37;;;;;;;3.83;2.78;;;;;;;;;;5087954;28;20020;-80
2023/03/10 11:09:16;;;;;;;4.88;2.63;;;;;;;;;;5079420;28;20040;-81
2023/03/10 11:11:57;;;;;;;;;;;;;;;;;;5091706;28;20035;-81
2023/03/10 11:14:34;;;;;;;3.72;1.98;;;;;;;;;;5092489;28;19916;-81
2023/03/10 11:17:13;;;;;;;3.95;2.25;;;;;;;;;;5089576;28;20024;-81
2023/03/10 11:20:00;;;;;;;3.95;2.00;;;;;;;;;;5080963;28;20024;-82
2023/03/10 11:22:45;;;;;;;4.03;1.58;;;;;;;;;;5084317;28;20475;-79
2023/03/10 11:25:36;;;;;;;2.50;1.90;;;;;;;;;;5088229;28;20035;-81
2023/03/10 11:28:21;;;;;;;3.40;2.15;;;;;;;;;;5092689;28;20103;-81
2023/03/10 11:31:09;;;;;;;3.53;1.70;;;;;;;;;;5083269;28;20477;-80
2023/03/10 11:33:40;;;;;;;2.35;1.25;;;;;;;;;;5103984;28;20101;-81
2023/03/10 11:36:23;;;;;;;2.00;1.38;;;;;;;;;;5082415;28;20043;-81
2023/03/10 11:38:53;;;;;;;1.95;1.30;;;;;;;;;;5085662;28;20024;-81
2023/03/10 11:41:23;;;;;;;1.60;0.82;;;;;;;;;;5088356;28;20467;-81
2023/03/10 11:43:54;;;;;;;4.88;1.23;;;;;;;;;;5082536;28;20032;-81
2023/03/10 11:46:45;;;;;;;0.82;0.60;;;;;;;;;;5082074;28;20032;-80
2023/03/10 11:49:14;;;;;;;1.38;0.82;;;;;;;;;;5088445;28;20040;-81
2023/03/10 11:51:48;;;;;;;1.38;0.93;;;;;;;;;;5088727;28;20024;-81
2023/03/10 11:54:28;;;;;;;1.48;0.98;;;;;;;;;;5081568;28;20043;-81
2023/03/10 11:56:55;;;;;;;3.70;1.58;;;;;;;;;;5076338;28;20078;-80
2023/03/10 11:59:26;;;;;;;2.40;1.55;;;;;;;;;;5091987;28;20191;-80
2023/03/10 12:01:54;;;;;;;10.50;1.17;;;;;;;;;;5078412;28;20727;-80
2023/03/10 12:04:29;;;;;;;1.45;1.02;;;;;;;;;;5083478;28;20554;-81
2023/03/10 12:07:20;;;;;;;1.02;0.70;;;;;;;;;;5087033;28;20028;-81
2023/03/10 12:09:59;;;;;;;0.98;0.70;;;;;;;;;;5073745;28;20036;-81
2023/03/10 12:12:35;;;;;;;0.88;0.70;;;;;;;;;;5078145;28;20028;-81
2023/03/10 12:15:24;;;;;;;4.78;1.73;;;;;;;;;;5092459;28;20055;-79
2023/03/10 12:17:51;;;;;;;6.28;1.17;;;;;;;;;;5085321;28;20396;-80
2023/03/10 12:20:17;;;;;;;2.22;0.80;;;;;;;;;;5083438;28;20023;-81
2023/03/10 12:22:49;;;;;;;1.38;1.00;;;;;;;;;;5089499;28;20031;-85
2023/03/10 12:25:31;;;;;;;1.20;0.70;;;;;;;;;;5087181;28;20387;-81
2023/03/10 12:28:14;;;;;;;0.52;0.40;;;;;;;;;;5081640;28;20037;-80
2023/03/10 12:30:55;;;;;;;0.63;0.30;;;;;;;;;;5107106;28;20065;-82
2023/03/10 12:33:29;;;;;;;0.30;0.30;;;;;;;;;;5084280;28;20041;-81
2023/03/10 12:36:04;;;;;;;0.57;0.40;;;;;;;;;;5080395;28;20024;-82
2023/03/10 12:38:52;;;;;;;0.57;0.20;;;;;;;;;;5083653;28;20035;-80
2023/03/10 12:41:27;;;;;;;0.20;0.20;;;;;;;;;;5082635;28;20024;-80
2023/03/10 12:44:00;;;;;;;0.73;0.57;;;;;;;;;;5083770;28;20063;-81
2023/03/10 12:46:48;;;;;;;0.52;0.45;;;;;;;;;;5083761;28;20409;-83
2023/03/10 12:49:13;;;;;;;0.40;0.30;;;;;;;;;;5084550;28;20510;-81
2023/03/10 12:51:47;;;;;;;1.10;0.30;;;;;;;;;;5087939;28;20024;-82
2023/03/10 12:54:47;;;;;;;4.60;0.45;;;;;;;;;;5079651;28;20032;-81
2023/03/10 12:57:21;;;;;;;0.52;0.40;;;;;;;;;;5076811;28;20481;-82
2023/03/10 13:00:05;;;;;;;1.17;0.60;;;;;;;;;;5085213;28;20028;-81
2023/03/10 13:02:55;;;;;;;1.38;0.47;;;;;;;;;;5078438;28;20101;-81
2023/03/10 13:05:28;;;;;;;0.20;0.20;;;;;;;;;;5084336;28;20059;-81
2023/03/10 13:08:00;;;;;;;0.20;0.20;;;;;;;;;;5082787;28;20435;-82
2023/03/10 13:10:29;;;;;;;0.28;0.28;;;;;;;;;;5079255;28;20028;-81
2023/03/10 13:13:00;;;;;;;0.28;0.22;;;;;;;;;;5081748;28;20069;-80
2023/03/10 13:15:29;;;;;;;0.28;0.22;;;;;;;;;;5077634;28;20032;-81
2023/03/10 13:18:08;;;;;;;0.65;0.45;;;;;;;;;;5086524;28;20110;-82
2023/03/10 13:20:36;;;;;;;0.73;0.50;;;;;;;;;;5082583;28;20021;-82
2023/03/10 13:23:01;;;;;;;0.85;0.50;;;;;;;;;;5084821;28;20028;-81
2023/03/10 13:25:27;;;;;;;0.70;0.43;;;;;;;;;;5087581;28;20017;-80
2023/03/10 13:27:56;;;;;;;0.40;0.40;;;;;;;;;;5086888;28;20107;-82
2023/03/10 13:30:25;;;;;;;0.40;0.32;;;;;;;;;;5082768;28;20484;-83
2023/03/10 13:32:55;;;;;;;;;;;;;;;;;;5082368;28;20044;-85
2023/03/10 13:35:23;;;;;;;;;;;;;;;;;;5084518;28;20330;-80
2023/03/10 13:38:20;;;;;;;0.20;0.20;;;;;;;;;;5088114;28;19919;-83
2023/03/10 13:40:48;;;;;;;1.30;0.50;;;;;;;;;;5085808;28;20131;-82
2023/03/10 13:43:31;;;;;;;0.13;0.13;;;;;;;;;;5081606;28;20383;-81
2023/03/10 13:45:58;;;;;;;0.55;0.30;;;;;;;;;;5084101;28;20109;-80
2023/03/10 13:48:26;;;;;;;0.20;0.20;;;;;;;;;;5083432;28;20037;-78
2023/03/10 13:51:06;;;;;;;1.23;0.50;;;;;;;;;;5088087;28;20034;-79
2023/03/10 13:53:32;;;;;;;1.05;0.52;;;;;;;;;;5084786;28;20077;-81
2023/03/10 13:55:58;;;;;;;0.55;0.35;;;;;;;;;;5083965;28;20028;-81
2023/03/10 13:58:25;;;;;;;0.63;0.50;;;;;;;;;;5085256;28;20092;-79
2023/03/10 14:00:55;;;;;;;0.82;0.68;;;;;;;;;;5103794;28;20487;-82
2023/03/10 14:03:20;;;;;;;;;;;;;;;;;;5104217;28;20040;-81
2023/03/10 14:05:46;;;;;;;0.50;0.50;;;;;;;;;;5085131;28;19927;-82
2023/03/10 14:08:27;;;;;;;0.30;0.30;;;;;;;;;;5083597;28;20039;-81
2023/03/10 14:10:53;;;;;;;0.10;0.10;;;;;;;;;;5082842;28;20640;-82
2023/03/10 14:13:39;;;;;;;1.45;0.65;;;;;;;;;;5087362;28;20028;-82
2023/03/10 14:16:04;;;;;;;1.35;0.63;;;;;;;;;;5085901;28;20028;-84
2023/03/10 14:18:35;;;;;;;1.35;0.80;;;;;;;;;;5083921;28;20027;-80
2023/03/10 14:21:22;;;;;;;0.63;0.63;;;;;;;;;;5101844;28;20023;-80
2023/03/10 14:23:48;;;;;;;1.00;0.70;;;;;;;;;;5086031;28;20024;-80
2023/03/10 14:26:15;;;;;;;0.85;0.70;;;;;;;;;;5081103;28;20076;-81
2023/03/10 14:28:41;;;;;;;2.60;0.98;;;;;;;;;;5075454;28;20383;-80
2023/03/10 14:31:22;;;;;;;0.82;0.70;;;;;;;;;;5084809;28;20099;-80
2023/03/10 14:33:47;;;;;;;0.93;0.65;;;;;;;;;;5085190;28;20059;-83
2023/03/10 14:36:13;;;;;;;1.48;0.80;;;;;;;;;;5089530;28;20024;-78
2023/03/10 14:38:38;;;;;;;0.88;0.63;;;;;;;;;;5088007;28;20043;-84
2023/03/10 14:41:04;;;;;;;1.85;1.08;;;;;;;;;;5086310;28;20443;-79
2023/03/10 14:43:30;;;;;;;2.15;0.70;;;;;;;;;;5081236;28;20056;-79
2023/03/10 14:45:59;;;;;;;0.95;0.70;;;;;;;;;;5084726;28;20110;-82
2023/03/10 14:48:28;;;;;;;1.40;0.90;;;;;;;;;;5090586;28;20391;-82
2023/03/10 14:50:53;;;;;;;1.05;0.95;;;;;;;;;;5085219;28;20061;-79
2023/03/10 14:53:25;;;;;;;3.22;1.08;;;;;;;;;;5085080;28;20020;-80
2023/03/10 14:55:55;;;;;;;0.57;0.50;;;;;;;;;;5089278;28;20508;-80
2023/03/10 14:58:24;;;;;;;2.00;0.77;;;;;;;;;;5088690;28;20503;-83
2023/03/10 15:00:50;;;;;;;1.05;0.75;;;;;;;;;;5086259;28;20836;-82